Time;durP1;ratioP1;P1;durP2;ratioP2;P2;SDS_P1;SDS_P2;PMS_P1;PMS_P2;Temp;Humidity;BMP_temperature;BMP_pressure;BME280_temperature;BME280_humidity;BME280_pressure;Samples;Min_cycle;Max_cycle;Signal;HPM_P1;HPM_P2
2022/03/18 00:02:24;;;;;;;60.60;41.50;;;;;;;6.68;100.00;96631.50;5116320;28;20220;-62
2022/03/18 00:04:51;;;;;;;75.93;47.07;;;;;;;6.64;100.00;96631.41;5133175;28;20187;-61
2022/03/18 00:07:18;;;;;;;65.40;39.60;;;;;;;6.63;100.00;96635.25;5116483;28;20242;-62
2022/03/18 00:09:43;;;;;;;74.13;47.87;;;;;;;6.60;100.00;96629.75;5116122;28;20196;-61
2022/03/18 00:12:11;;;;;;;67.10;42.93;;;;;;;6.57;100.00;96638.56;5116620;28;20213;-60
2022/03/18 00:14:39;;;;;;;63.00;40.27;;;;;;;6.54;100.00;96641.97;5116887;28;20249;-61
2022/03/18 00:17:04;;;;;;;67.63;41.23;;;;;;;6.48;100.00;96632.50;5116275;28;20188;-60
2022/03/18 00:19:30;;;;;;;64.47;40.23;;;;;;;6.43;100.00;96640.91;5116234;28;20180;-60
2022/03/18 00:22:01;;;;;;;61.17;39.33;;;;;;;6.39;100.00;96640.00;5116286;28;20188;-61
2022/03/18 00:24:32;;;;;;;63.20;38.27;;;;;;;6.34;100.00;96637.56;5116904;28;20280;-60
2022/03/18 00:26:58;;;;;;;62.40;40.77;;;;;;;6.30;100.00;96642.06;5116816;28;20194;-58
2022/03/18 00:29:23;;;;;;;64.70;41.17;;;;;;;6.29;100.00;96637.78;5116181;28;20183;-62
2022/03/18 00:31:49;;;;;;;64.67;42.20;;;;;;;6.25;100.00;96643.13;5116234;28;20586;-61
2022/03/18 00:34:14;;;;;;;61.43;39.70;;;;;;;6.22;100.00;96649.22;5115915;28;20183;-61
2022/03/18 00:36:39;;;;;;;59.87;39.43;;;;;;;6.18;100.00;96644.84;5116243;28;20212;-62
2022/03/18 00:39:06;;;;;;;65.90;42.47;;;;;;;6.16;100.00;96636.25;5116234;28;20220;-62
2022/03/18 00:41:31;;;;;;;59.43;39.53;;;;;;;6.14;100.00;96639.31;5116104;28;20213;-61
2022/03/18 00:43:57;;;;;;;62.40;39.47;;;;;;;6.14;100.00;96638.53;5115915;28;20181;-61
2022/03/18 00:46:23;;;;;;;66.70;40.73;;;;;;;6.15;100.00;96640.09;5115766;28;20190;-60
2022/03/18 00:54:17;;;;;;;62.73;40.67;;;;;;;6.10;100.00;96640.34;5134213;28;20284;-59
2022/03/18 00:56:42;;;;;;;60.83;39.93;;;;;;;6.10;100.00;96649.28;5115838;28;20625;-58
2022/03/18 00:59:07;;;;;;;64.83;40.13;;;;;;;6.10;100.00;96637.63;5117374;28;20181;-58
2022/03/18 01:01:33;;;;;;;64.97;40.07;;;;;;;6.07;100.00;96643.72;5119197;27;20237;-58
2022/03/18 01:03:58;;;;;;;63.70;38.77;;;;;;;6.06;100.00;96642.16;5119123;28;20182;-49
2022/03/18 01:06:24;;;;;;;61.73;39.70;;;;;;;6.05;100.00;96643.31;5119110;28;20577;-58
2022/03/18 01:08:49;;;;;;;60.77;38.60;;;;;;;6.04;100.00;96644.41;5118850;28;20306;-57
2022/03/18 01:11:14;;;;;;;61.87;39.87;;;;;;;6.04;100.00;96642.50;5119128;28;20192;-57
2022/03/18 01:13:40;;;;;;;60.03;37.73;;;;;;;6.02;100.00;96642.03;5118920;28;20224;-59
2022/03/18 01:16:06;;;;;;;58.93;37.53;;;;;;;6.01;100.00;96637.75;5118726;28;20191;-57
2022/03/18 01:18:31;;;;;;;60.10;38.93;;;;;;;6.02;100.00;96643.97;5119128;28;20180;-58
2022/03/18 01:20:56;;;;;;;59.33;38.20;;;;;;;6.02;100.00;96641.28;5118637;28;20189;-51
2022/03/18 01:23:23;;;;;;;59.13;37.93;;;;;;;6.02;100.00;96641.28;5119450;28;20188;-47
2022/03/18 01:25:48;;;;;;;59.27;39.30;;;;;;;6.03;100.00;96642.84;5118832;28;20219;-60
2022/03/18 01:28:14;;;;;;;56.47;37.73;;;;;;;6.01;100.00;96650.56;5118672;28;20184;-60
2022/03/18 01:30:39;;;;;;;57.57;37.27;;;;;;;6.01;100.00;96639.69;5136977;28;20629;-60
2022/03/18 01:33:05;;;;;;;57.07;36.10;;;;;;;6.01;100.00;96640.47;5118958;28;20207;-60
2022/03/18 01:35:30;;;;;;;61.83;38.03;;;;;;;6.01;100.00;96653.25;5135732;28;20221;-59
2022/03/18 01:37:56;;;;;;;60.43;37.63;;;;;;;6.00;100.00;96651.66;5118977;28;20183;-60
2022/03/18 01:40:21;;;;;;;62.47;40.47;;;;;;;5.98;100.00;96656.66;5118636;28;20180;-58
2022/03/18 01:42:47;;;;;;;61.77;39.20;;;;;;;5.94;100.00;96650.34;5118502;28;20187;-59
2022/03/18 01:45:13;;;;;;;60.53;38.30;;;;;;;5.91;100.00;96653.72;5119030;28;20587;-59
2022/03/18 01:47:42;;;;;;;61.37;38.60;;;;;;;5.91;100.00;96648.31;5118511;28;20180;-60
2022/03/18 01:50:10;;;;;;;59.83;36.97;;;;;;;5.91;100.00;96651.00;5118510;28;20198;-58
2022/03/18 01:52:36;;;;;;;61.37;38.33;;;;;;;5.91;100.00;96651.00;5118357;28;20209;-58
2022/03/18 01:55:02;;;;;;;61.37;39.33;;;;;;;5.90;100.00;96649.44;5117813;28;20192;-59
2022/03/18 01:57:28;;;;;;;59.37;37.50;;;;;;;5.91;100.00;96653.72;5135382;28;20192;-59
2022/03/18 01:59:54;;;;;;;59.63;37.63;;;;;;;5.91;100.00;96651.00;5118256;28;20190;-56
2022/03/18 02:02:20;;;;;;;59.10;37.70;;;;;;;5.90;100.00;96661.06;5118115;28;20203;-59
2022/03/18 02:04:46;;;;;;;61.67;38.80;;;;;;;5.92;100.00;96658.00;5118906;28;20218;-59
2022/03/18 02:07:13;;;;;;;54.87;37.47;;;;;;;5.93;100.00;96659.56;5118147;28;20518;-59
2022/03/18 02:09:39;;;;;;;58.90;38.37;;;;;;;5.95;100.00;96657.31;5117652;28;20188;-59
2022/03/18 02:12:06;;;;;;;66.13;38.63;;;;;;;5.95;100.00;96668.97;5117841;28;20218;-59
2022/03/18 02:14:34;;;;;;;59.80;38.27;;;;;;;5.96;100.00;96664.31;5117879;28;20191;-59
2022/03/18 02:17:02;;;;;;;59.17;37.80;;;;;;;5.96;100.00;96653.47;5135541;28;20208;-57
2022/03/18 02:19:28;;;;;;;60.50;37.77;;;;;;;5.95;100.00;96668.16;5118065;28;20183;-58
2022/03/18 02:21:55;;;;;;;59.20;36.70;;;;;;;5.94;100.00;96667.38;5118280;28;20187;-59
2022/03/18 02:24:20;;;;;;;61.77;39.33;;;;;;;5.96;100.00;96657.00;5117964;28;20698;-59
2022/03/18 02:26:47;;;;;;;57.73;38.23;;;;;;;5.97;100.00;96668.59;5117552;28;20190;-59
2022/03/18 02:29:12;;;;;;;57.50;37.07;;;;;;;5.96;100.00;96669.75;5117873;28;20185;-59
2022/03/18 02:31:38;;;;;;;57.33;36.87;;;;;;;5.94;100.00;96672.03;5117706;28;20202;-59
2022/03/18 02:34:03;;;;;;;59.30;38.10;;;;;;;5.92;100.00;96663.44;5117485;28;20212;-59
2022/03/18 02:36:28;;;;;;;57.93;36.70;;;;;;;5.90;100.00;96668.41;5118524;28;20191;-57
2022/03/18 02:38:54;;;;;;;61.10;37.37;;;;;;;5.87;100.00;96666.38;5117908;28;20234;-48
2022/03/18 02:41:19;;;;;;;60.47;38.93;;;;;;;5.85;100.00;96657.78;5117606;28;20180;-49
2022/03/18 02:43:46;;;;;;;60.73;38.47;;;;;;;5.83;100.00;96670.91;5117494;28;20187;-47
2022/03/18 02:46:11;;;;;;;60.40;38.17;;;;;;;5.82;100.00;96658.47;5117532;28;20172;-46
2022/03/18 02:48:37;;;;;;;59.53;38.37;;;;;;;5.81;100.00;96659.59;5117391;28;20274;-48
2022/03/18 02:51:02;;;;;;;58.43;37.77;;;;;;;5.80;100.00;96661.47;5117875;28;20204;-46
2022/03/18 02:53:27;;;;;;;54.80;35.77;;;;;;;5.77;100.00;96662.19;5117357;28;20204;-57
2022/03/18 02:55:54;;;;;;;59.57;36.90;;;;;;;5.75;100.00;96669.84;5117507;28;20211;-62
2022/03/18 02:58:19;;;;;;;57.00;36.97;;;;;;;5.70;100.00;96672.00;5117559;28;20233;-61
2022/03/18 03:00:45;;;;;;;57.30;36.53;;;;;;;5.65;100.00;96670.31;5117291;28;20188;-62
2022/03/18 03:03:10;;;;;;;61.53;36.80;;;;;;;5.62;100.00;96667.50;5117476;28;20209;-61
2022/03/18 03:08:19;;;;;;;57.20;36.27;;;;;;;5.50;100.00;96667.53;5135845;28;20275;-61
2022/03/18 03:10:44;;;;;;;58.07;35.87;;;;;;;5.46;100.00;96677.44;5117194;28;20207;-62
2022/03/18 03:13:10;;;;;;;57.43;36.47;;;;;;;5.43;100.00;96672.72;5117687;28;20221;-56
2022/03/18 03:15:38;;;;;;;59.83;38.13;;;;;;;5.38;100.00;96681.03;5117208;28;20323;-48
2022/03/18 03:18:04;;;;;;;57.63;37.00;;;;;;;5.34;100.00;96675.53;5117413;28;20183;-49
2022/03/18 03:20:29;;;;;;;58.50;38.47;;;;;;;5.32;100.00;96677.75;5117219;28;20285;-48
2022/03/18 03:22:55;;;;;;;56.37;36.47;;;;;;;5.30;100.00;96674.63;5134920;27;20207;-50
2022/03/18 03:25:20;;;;;;;57.53;37.13;;;;;;;5.26;100.00;96681.03;5135588;28;20183;-49
2022/03/18 03:27:46;;;;;;;57.23;36.83;;;;;;;5.22;100.00;96686.34;5116686;28;20282;-48
2022/03/18 03:30:12;;;;;;;60.53;37.67;;;;;;;5.22;100.00;96675.53;5117057;28;20278;-59
2022/03/18 03:32:38;;;;;;;56.97;36.97;;;;;;;5.22;100.00;96688.25;5116930;28;20216;-57
2022/03/18 03:35:05;;;;;;;56.27;36.23;;;;;;;5.20;100.00;96690.50;5117297;28;20262;-56
2022/03/18 03:37:31;;;;;;;60.07;37.80;;;;;;;5.19;100.00;96689.72;5117056;28;20327;-57
2022/03/18 03:39:56;;;;;;;63.27;40.10;;;;;;;5.21;100.00;96692.09;5117045;28;20228;-58
2022/03/18 03:42:22;;;;;;;59.43;36.30;;;;;;;5.20;100.00;96690.50;5117030;28;20191;-58
2022/03/18 03:44:47;;;;;;;59.80;38.47;;;;;;;5.22;100.00;96693.66;5116282;28;20240;-58
2022/03/18 03:47:13;;;;;;;62.53;38.37;;;;;;;5.22;100.00;96691.75;5116566;28;20190;-58
2022/03/18 03:49:39;;;;;;;62.27;38.80;;;;;;;5.26;100.00;96700.00;5116989;28;20188;-46
2022/03/18 03:52:08;;;;;;;60.97;39.53;;;;;;;5.26;100.00;96700.00;5116610;28;20184;-50
2022/03/18 03:54:34;;;;;;;63.27;39.00;;;;;;;5.27;100.00;96701.56;5117062;28;20642;-51
2022/03/18 03:56:59;;;;;;;64.50;39.23;;;;;;;5.30;100.00;96706.31;5117089;28;20189;-49
2022/03/18 03:59:24;;;;;;;60.60;39.27;;;;;;;5.29;100.00;96705.53;5117436;28;20617;-49
2022/03/18 04:01:49;;;;;;;61.43;36.90;;;;;;;5.31;100.00;96713.31;5116384;27;20210;-52
2022/03/18 04:04:16;;;;;;;56.50;35.37;;;;;;;5.31;100.00;96716.81;5117153;28;20179;-52
2022/03/18 04:06:42;;;;;;;59.33;37.43;;;;;;;5.31;100.00;96707.88;5116644;28;20179;-48
2022/03/18 04:09:08;;;;;;;56.53;37.40;;;;;;;5.31;100.00;96722.22;5116387;28;20214;-55
2022/03/18 04:11:33;;;;;;;59.80;37.23;;;;;;;5.29;100.00;96727.19;5116341;28;20183;-50
2022/03/18 04:13:59;;;;;;;62.50;36.40;;;;;;;5.28;100.00;96722.91;5116104;28;20239;-50
2022/03/18 04:16:24;;;;;;;64.97;38.50;;;;;;;5.27;100.00;96734.84;5116407;28;20591;-51
2022/03/18 04:18:49;;;;;;;57.83;37.50;;;;;;;5.28;100.00;96735.66;5116634;28;20181;-47
2022/03/18 04:21:15;;;;;;;57.30;37.23;;;;;;;5.27;100.00;96736.75;5116157;28;20282;-53
2022/03/18 04:23:43;;;;;;;60.37;37.80;;;;;;;5.26;100.00;96737.91;5116197;28;20226;-50
2022/03/18 04:26:08;;;;;;;60.57;36.70;;;;;;;5.23;100.00;96739.38;5116281;28;20206;-47
2022/03/18 04:28:34;;;;;;;55.20;37.10;;;;;;;5.25;100.00;96747.94;5153629;22;20211;-62
2022/03/18 04:30:59;;;;;;;63.30;37.53;;;;;;;5.25;100.00;96752.56;5095868;28;20200;-62
2022/03/18 04:33:25;;;;;;;61.07;37.90;;;;;;;5.24;100.00;96756.41;5096431;28;20204;-63
2022/03/18 04:35:51;;;;;;;62.40;37.77;;;;;;;5.23;100.00;96760.22;5098901;28;20194;-62
2022/03/18 04:38:17;;;;;;;63.20;37.70;;;;;;;5.22;100.00;96761.34;5099006;28;20212;-62
2022/03/18 04:40:42;;;;;;;55.87;35.87;;;;;;;5.19;100.00;96760.13;5099014;28;20196;-62
2022/03/18 04:43:08;;;;;;;57.87;37.27;;;;;;;5.18;100.00;96768.56;5098956;28;20188;-64
2022/03/18 04:45:33;;;;;;;60.00;36.97;;;;;;;5.15;100.00;96772.75;5099038;28;20195;-47
2022/03/18 04:47:58;;;;;;;56.13;35.27;;;;;;;5.13;100.00;96771.50;5099104;28;20232;-56
2022/03/18 04:50:24;;;;;;;60.67;35.83;;;;;;;5.11;100.00;96773.75;5098481;28;20203;-54
2022/03/18 04:52:49;;;;;;;60.50;37.13;;;;;;;5.06;100.00;96782.09;5099154;28;20205;-54
2022/03/18 04:55:14;;;;;;;60.77;37.07;;;;;;;5.04;100.00;96781.59;5098731;28;20188;-56
2022/03/18 04:57:40;;;;;;;59.37;36.77;;;;;;;4.99;100.00;96771.00;5098646;28;20187;-56
2022/03/18 05:00:07;;;;;;;56.73;35.80;;;;;;;4.99;100.00;96784.53;5099130;28;20178;-54
2022/03/18 05:02:35;;;;;;;56.57;35.47;;;;;;;4.99;100.00;96781.81;5099290;28;20290;-62
2022/03/18 05:05:00;;;;;;;58.73;37.20;;;;;;;4.99;100.00;96790.72;5098512;28;20179;-55
2022/03/18 05:07:25;;;;;;;60.30;37.07;;;;;;;4.97;100.00;96778.66;5098693;28;20188;-56
2022/03/18 05:09:50;;;;;;;61.60;36.60;;;;;;;4.98;100.00;96786.44;5098479;28;20185;-56
2022/03/18 05:12:17;;;;;;;65.60;39.33;;;;;;;4.97;100.00;96778.66;5098522;28;20208;-56
2022/03/18 05:14:42;;;;;;;61.77;36.93;;;;;;;4.96;100.00;96793.31;5098754;28;20176;-53
2022/03/18 05:17:09;;;;;;;64.43;38.80;;;;;;;4.96;100.00;96796.03;5098377;28;20548;-58
2022/03/18 05:19:36;;;;;;;62.50;37.30;;;;;;;4.92;100.00;96793.16;5098679;28;20612;-57
2022/03/18 05:22:02;;;;;;;61.27;36.90;;;;;;;4.89;100.00;96793.06;5098731;28;20275;-55
2022/03/18 05:24:27;;;;;;;64.67;38.13;;;;;;;4.84;100.00;96796.75;5098196;28;20184;-59
2022/03/18 05:26:54;;;;;;;60.17;37.20;;;;;;;4.82;100.00;96803.63;5098540;28;20196;-54
2022/03/18 05:29:21;;;;;;;58.33;36.87;;;;;;;4.84;100.00;96812.22;5098690;28;20177;-58
2022/03/18 05:31:46;;;;;;;61.00;38.67;;;;;;;4.85;100.00;96802.97;5098201;28;20187;-58
2022/03/18 05:34:13;;;;;;;61.57;36.60;;;;;;;4.85;100.00;96798.31;5098020;28;20224;-58
2022/03/18 05:36:39;;;;;;;62.83;37.80;;;;;;;4.88;100.00;96807.72;5098035;28;20253;-58
2022/03/18 05:39:05;;;;;;;65.60;38.27;;;;;;;4.90;100.00;96808.16;5116037;28;20189;-51
2022/03/18 05:41:31;;;;;;;59.87;38.23;;;;;;;4.92;100.00;96814.03;5098397;28;20184;-60
2022/03/18 05:43:57;;;;;;;68.77;38.53;;;;;;;4.96;100.00;96813.03;5116096;28;20187;-63
2022/03/18 05:46:22;;;;;;;59.30;37.87;;;;;;;5.00;100.00;96808.56;5097254;28;20185;-61
2022/03/18 05:48:47;;;;;;;64.30;37.93;;;;;;;5.08;100.00;96817.72;5097795;28;20180;-62
2022/03/18 05:51:13;;;;;;;62.87;36.80;;;;;;;5.15;100.00;96817.97;5097857;28;20240;-62
2022/03/18 05:53:38;;;;;;;60.30;37.10;;;;;;;5.24;100.00;96815.97;5097686;28;20208;-62
2022/03/18 05:58:48;;;;;;;68.27;37.87;;;;;;;5.39;100.00;96823.47;5116157;28;20180;-64
2022/03/18 06:01:14;;;;;;;60.97;37.80;;;;;;;5.52;100.00;96827.78;5097822;28;20184;-58
2022/03/18 06:03:40;;;;;;;60.33;37.23;;;;;;;5.61;100.00;96823.06;5097566;28;20201;-57
2022/03/18 06:06:06;;;;;;;55.17;35.57;;;;;;;5.72;100.00;96829.63;5097787;28;20597;-59
2022/03/18 06:14:00;;;;;;;60.73;35.90;;;;;;;6.08;100.00;96845.94;5115521;28;20252;-58
2022/03/18 06:16:26;;;;;;;56.53;35.40;;;;;;;6.23;100.00;96842.59;5097460;28;20268;-51
2022/03/18 06:18:51;;;;;;;55.80;36.43;;;;;;;6.31;100.00;96844.38;5097193;28;20549;-51
2022/03/18 06:21:16;;;;;;;56.47;35.53;;;;;;;6.48;100.00;96849.56;5097175;28;20321;-49
2022/03/18 06:23:43;;;;;;;56.40;37.57;;;;;;;6.63;100.00;96846.94;5097411;28;20200;-50
2022/03/18 06:26:09;;;;;;;59.93;36.70;;;;;;;6.81;100.00;96848.25;5097401;28;20192;-49
2022/03/18 06:28:34;;;;;;;52.67;35.60;;;;;;;7.05;100.00;96852.84;5097098;28;20188;-50
2022/03/18 06:30:59;;;;;;;59.40;37.07;;;;;;;7.21;100.00;96859.09;5098159;28;20184;-50
2022/03/18 06:33:27;;;;;;;54.23;33.77;;;;;;;7.20;100.00;96859.44;5097534;28;20230;-53
2022/03/18 06:35:53;;;;;;;53.33;34.83;;;;;;;7.32;100.00;96860.19;5097414;28;20242;-49
2022/03/18 06:38:18;;;;;;;54.83;35.83;;;;;;;7.35;100.00;96870.38;5097288;28;20178;-47
2022/03/18 06:40:44;;;;;;;54.20;37.40;;;;;;;7.62;100.00;96872.31;5097045;28;20627;-50
2022/03/18 06:43:09;;;;;;;49.73;34.57;;;;;;;7.63;100.00;96879.31;5096942;28;20282;-47
2022/03/18 06:45:34;;;;;;;52.03;35.20;;;;;;;7.72;100.00;96882.66;5097296;28;20183;-47
2022/03/18 06:47:59;;;;;;;48.33;33.30;;;;;;;8.01;100.00;96885.00;5096917;28;20194;-47
2022/03/18 06:50:25;;;;;;;49.53;32.67;;;;;;;8.33;100.00;96886.63;5096910;28;20248;-55
2022/03/18 06:52:51;;;;;;;49.13;33.53;;;;;;;8.64;100.00;96896.69;5097441;28;20268;-58
2022/03/18 06:55:16;;;;;;;43.17;32.53;;;;;;;9.10;100.00;96896.59;5097091;28;20196;-50
2022/03/18 06:57:42;;;;;;;42.93;31.67;;;;;;;8.93;100.00;96904.38;5096797;28;20191;-51
2022/03/18 07:00:09;;;;;;;41.37;30.80;;;;;;;8.86;100.00;96913.16;5096903;28;20248;-52
2022/03/18 07:02:34;;;;;;;42.17;31.00;;;;;;;8.86;100.00;96915.09;5097051;28;20207;-50
2022/03/18 07:04:59;;;;;;;43.80;30.50;;;;;;;8.47;100.00;96914.19;5097011;28;20187;-53
2022/03/18 07:07:25;;;;;;;45.23;30.70;;;;;;;8.53;100.00;96920.16;5096589;28;20186;-52
2022/03/18 07:09:50;;;;;;;41.73;30.27;;;;;;;8.82;100.00;96914.25;5096878;28;20175;-56
2022/03/18 07:12:16;;;;;;;43.47;30.83;;;;;;;8.93;100.00;96915.28;5096937;28;20203;-56
2022/03/18 07:14:42;;;;;;;42.40;30.73;;;;;;;8.99;100.00;96917.34;5096678;28;20207;-52
2022/03/18 07:19:52;;;;;;;42.93;30.77;;;;;;;8.62;100.00;96926.19;5114617;28;20187;-54
2022/03/18 07:22:18;;;;;;;40.30;30.13;;;;;;;8.81;100.00;96924.34;5096637;28;20351;-50
2022/03/18 07:24:43;;;;;;;41.00;29.03;;;;;;;8.91;100.00;96923.78;5096654;28;20208;-48
2022/03/18 07:27:09;;;;;;;43.50;29.70;;;;;;;9.15;100.00;96933.69;5096312;28;20184;-50
2022/03/18 07:29:34;;;;;;;40.07;30.00;;;;;;;9.05;100.00;96932.31;5096155;28;20184;-46
2022/03/18 07:32:00;;;;;;;40.80;29.33;;;;;;;9.31;100.00;96931.69;5096511;28;20209;-54
2022/03/18 07:34:25;;;;;;;39.43;28.07;;;;;;;9.17;100.00;96932.16;5096350;28;20183;-49
2022/03/18 07:36:51;;;;;;;38.07;29.23;;;;;;;9.01;100.00;96942.34;5096534;28;20183;-54
2022/03/18 07:39:17;;;;;;;41.07;29.57;;;;;;;8.97;100.00;96946.91;5096225;28;20183;-49
2022/03/18 07:41:42;;;;;;;39.27;29.90;;;;;;;9.48;100.00;96959.31;5096356;28;20190;-51
2022/03/18 07:44:08;;;;;;;40.27;29.90;;;;;;;9.58;100.00;96942.41;5096496;28;20206;-51
2022/03/18 07:46:34;;;;;;;38.87;28.83;;;;;;;9.63;100.00;96950.31;5095921;28;20187;-49
2022/03/18 07:49:00;;;;;;;39.40;29.13;;;;;;;9.67;100.00;96956.63;5095837;28;20193;-49
2022/03/18 07:51:25;;;;;;;37.50;28.23;;;;;;;9.82;100.00;96958.50;5096468;28;20180;-63
2022/03/18 07:53:50;;;;;;;38.23;28.67;;;;;;;9.33;100.00;96960.16;5096478;28;20668;-62
2022/03/18 07:56:16;;;;;;;43.77;30.30;;;;;;;9.52;100.00;96965.66;5096536;28;20192;-62
2022/03/18 07:58:41;;;;;;;37.77;28.40;;;;;;;9.66;100.00;96976.06;5096041;28;20184;-61
2022/03/18 08:01:06;;;;;;;38.80;28.57;;;;;;;9.60;100.00;96966.59;5096276;28;20188;-64
2022/03/18 08:03:32;;;;;;;38.23;29.43;;;;;;;9.58;100.00;96969.66;5112527;28;20271;-62
2022/03/18 08:05:57;;;;;;;37.50;28.03;;;;;;;9.06;100.00;96976.66;5095750;28;20188;-62
2022/03/18 08:08:22;;;;;;;35.67;28.37;;;;;;;9.45;100.00;96979.16;5096698;28;20214;-53
2022/03/18 08:10:48;;;;;;;39.67;29.10;;;;;;;9.91;100.00;96978.16;5099308;28;20220;-48
2022/03/18 08:13:14;;;;;;;38.03;29.53;;;;;;;10.26;100.00;96988.22;5116473;28;20623;-51
2022/03/18 08:15:40;;;;;;;38.37;27.47;;;;;;;10.23;100.00;96995.16;5099412;28;20188;-50
2022/03/18 08:18:08;;;;;;;36.53;27.73;;;;;;;10.07;100.00;96998.00;5117229;28;20181;-53
2022/03/18 08:20:40;;;;;;;37.47;27.50;;;;;;;10.10;100.00;96991.81;5099299;28;20712;-48
2022/03/18 08:23:11;;;;;;;35.23;27.03;;;;;;;10.31;100.00;96990.66;5116845;28;20212;-50
2022/03/18 08:25:36;;;;;;;33.20;25.87;;;;;;;10.00;100.00;97003.28;5099193;28;20206;-50
2022/03/18 08:28:05;;;;;;;39.10;28.13;;;;;;;9.84;100.00;97008.00;5099431;28;20212;-62
2022/03/18 08:30:30;;;;;;;36.63;27.10;;;;;;;9.69;100.00;97008.09;5099008;28;20189;-62
2022/03/18 08:32:56;;;;;;;39.40;28.03;;;;;;;9.78;100.00;97006.75;5099588;28;20256;-62
2022/03/18 08:35:21;;;;;;;41.03;28.30;;;;;;;10.38;100.00;97010.66;5099101;28;20208;-62
2022/03/18 08:37:56;;;;;;;39.00;27.93;;;;;;;10.70;100.00;97003.06;5099554;28;20175;-62
2022/03/18 08:40:22;;;;;;;35.53;27.13;;;;;;;11.63;100.00;97004.94;5098978;28;20196;-62
2022/03/18 08:42:48;;;;;;;37.97;28.40;;;;;;;11.75;100.00;97010.19;5099191;28;20186;-47
2022/03/18 08:45:14;;;;;;;36.23;26.80;;;;;;;12.71;100.00;97013.66;5098916;28;20241;-47
2022/03/18 08:47:39;;;;;;;34.50;27.23;;;;;;;11.85;100.00;97009.56;5099007;28;20274;-50
2022/03/18 08:50:05;;;;;;;33.33;27.17;;;;;;;12.70;100.00;97012.09;5098827;28;20187;-51
2022/03/18 08:52:30;;;;;;;34.63;28.07;;;;;;;11.76;100.00;97011.78;5099085;28;20732;-51
2022/03/18 08:54:55;;;;;;;37.90;27.90;;;;;;;12.29;100.00;97013.22;5098800;28;20183;-51
2022/03/18 08:57:21;;;;;;;36.10;28.70;;;;;;;12.21;100.00;97012.34;5098876;28;20187;-52
2022/03/18 08:59:46;;;;;;;39.27;29.53;;;;;;;12.12;100.00;97019.28;5098691;28;20184;-55
2022/03/18 09:02:12;;;;;;;48.87;37.63;;;;;;;12.39;100.00;97018.81;5098679;28;20231;-47
2022/03/18 09:04:37;;;;;;;34.03;28.60;;;;;;;12.67;100.00;97012.84;5098971;28;20180;-46
2022/03/18 09:07:03;;;;;;;37.20;27.53;;;;;;;12.70;99.33;97023.06;5098554;28;20233;-47
2022/03/18 09:09:28;;;;;;;38.37;28.93;;;;;;;11.70;100.00;97029.69;5099033;28;20267;-47
2022/03/18 09:11:54;;;;;;;35.13;27.97;;;;;;;11.65;100.00;97032.75;5098827;28;20215;-46
2022/03/18 09:14:20;;;;;;;35.87;28.67;;;;;;;10.57;100.00;97028.97;5098268;28;20264;-48
2022/03/18 09:16:47;;;;;;;34.40;26.47;;;;;;;11.07;100.00;97036.91;5098480;28;20183;-46
2022/03/18 09:19:13;;;;;;;34.83;27.23;;;;;;;11.17;100.00;97034.31;5097915;28;20183;-48
2022/03/18 09:21:38;;;;;;;35.90;26.97;;;;;;;11.62;100.00;97038.94;5098490;28;20183;-64
2022/03/18 09:24:04;;;;;;;36.53;27.00;;;;;;;11.82;100.00;97038.47;5098201;28;20188;-62
2022/03/18 09:26:29;;;;;;;33.27;25.80;;;;;;;11.65;98.21;97046.44;5098597;28;20184;-60
2022/03/18 09:28:54;;;;;;;32.83;25.13;;;;;;;11.47;98.09;97042.59;5098410;28;20215;-59
2022/03/18 09:31:20;;;;;;;35.70;26.63;;;;;;;11.33;99.63;97056.06;5098145;28;20240;-61
2022/03/18 09:33:46;;;;;;;30.93;24.03;;;;;;;11.75;97.24;97049.31;5098158;28;20623;-61
2022/03/18 09:36:14;;;;;;;33.13;25.53;;;;;;;11.71;94.61;97053.94;5098177;28;20221;-61
2022/03/18 09:38:41;;;;;;;33.63;25.73;;;;;;;11.78;93.85;97058.72;5116019;28;20567;-60
2022/03/18 09:41:07;;;;;;;32.83;25.20;;;;;;;12.21;92.63;97049.91;5098150;28;20180;-52
2022/03/18 09:43:37;;;;;;;34.50;24.73;;;;;;;12.00;89.44;97063.31;5097974;28;20187;-53
2022/03/18 09:46:08;;;;;;;33.63;24.27;;;;;;;12.15;89.28;97065.09;5098330;28;20536;-53
2022/03/18 09:48:34;;;;;;;34.47;24.83;;;;;;;12.62;84.79;97054.31;5097857;28;20203;-54
2022/03/18 09:50:59;;;;;;;30.70;24.27;;;;;;;13.19;81.49;97057.25;5098182;28;20187;-52
2022/03/18 09:53:25;;;;;;;33.83;25.10;;;;;;;13.06;80.28;97047.75;5097887;28;20207;-54
2022/03/18 09:55:51;;;;;;;30.73;24.43;;;;;;;13.12;80.58;97056.41;5097846;28;20182;-58
2022/03/18 09:58:17;;;;;;;33.70;24.33;;;;;;;13.82;80.70;97056.94;5097807;28;20278;-54
2022/03/18 10:00:43;;;;;;;32.80;24.53;;;;;;;13.54;76.23;97051.25;5097623;28;20190;-45
2022/03/18 10:03:13;;;;;;;28.43;23.50;;;;;;;13.07;77.05;97064.97;5097742;28;20203;-49
2022/03/18 10:05:59;;;;;;;31.40;24.10;;;;;;;13.38;74.46;97063.66;5097713;28;20629;-45
2022/03/18 10:08:27;;;;;;;30.23;23.63;;;;;;;13.11;75.22;97065.78;5098106;28;20192;-46
2022/03/18 10:10:53;;;;;;;32.83;24.47;;;;;;;13.38;76.81;97065.25;5097975;28;20210;-45
2022/03/18 10:13:20;;;;;;;30.37;23.77;;;;;;;12.97;75.77;97071.13;5097937;28;20195;-46
2022/03/18 10:15:46;;;;;;;31.80;22.93;;;;;;;13.50;71.52;97088.06;5097389;28;20191;-46
2022/03/18 10:18:13;;;;;;;32.13;23.43;;;;;;;12.38;76.02;97071.25;5097589;28;20183;-53
2022/03/18 10:20:41;;;;;;;34.80;23.03;;;;;;;12.18;76.57;97083.53;5097615;28;20190;-56
2022/03/18 10:23:09;;;;;;;29.47;22.53;;;;;;;11.91;79.94;97079.25;5097491;28;20226;-55
2022/03/18 10:25:41;;;;;;;31.13;23.23;;;;;;;11.97;79.52;97088.72;5097625;28;20187;-50
2022/03/18 10:28:08;;;;;;;32.57;23.17;;;;;;;12.22;78.87;97096.09;5097394;28;20202;-48
2022/03/18 10:30:34;;;;;;;31.70;24.20;;;;;;;12.37;78.41;97086.09;5097258;28;20234;-48
2022/03/18 10:33:00;;;;;;;28.13;22.67;;;;;;;12.89;73.35;97085.91;5096941;28;20219;-55
2022/03/18 10:38:34;;;;;;;29.50;21.30;;;;;;;13.38;69.43;97075.44;5115678;28;20244;-50
2022/03/18 10:41:23;;;;;;;30.93;22.63;;;;;;;13.79;66.93;97073.38;5097498;28;20175;-50
2022/03/18 10:43:50;;;;;;;29.20;21.67;;;;;;;14.00;64.12;97079.81;5097615;28;20188;-47
2022/03/18 10:46:16;;;;;;;26.37;20.63;;;;;;;13.86;60.82;97073.44;5096926;28;20180;-52
2022/03/18 10:49:01;;;;;;;29.53;21.07;;;;;;;13.99;58.23;97080.97;5097082;28;20205;-49
2022/03/18 10:51:27;;;;;;;29.10;20.83;;;;;;;13.52;59.72;97075.56;5097458;28;20211;-53
2022/03/18 10:53:56;;;;;;;27.43;20.43;;;;;;;13.37;61.34;97068.38;5096936;28;20230;-65
2022/03/18 10:56:22;;;;;;;28.00;20.43;;;;;;;14.00;59.61;97070.78;5096863;28;20183;-50
2022/03/18 10:58:47;;;;;;;30.33;21.10;;;;;;;13.86;55.51;97079.72;5096876;28;20180;-53
2022/03/18 11:01:14;;;;;;;29.30;19.83;;;;;;;14.08;55.34;97092.41;5096747;28;20191;-51
2022/03/18 11:03:40;;;;;;;29.03;20.10;;;;;;;13.96;53.69;97090.00;5096697;28;20269;-45
2022/03/18 11:06:06;;;;;;;25.20;19.87;;;;;;;13.97;53.17;97099.81;5097014;28;20225;-47
2022/03/18 11:08:37;;;;;;;26.83;20.57;;;;;;;13.51;56.94;97084.94;5096772;28;20244;-50
2022/03/18 11:11:21;;;;;;;30.30;20.90;;;;;;;13.46;58.13;97085.31;5096714;28;20183;-59
2022/03/18 11:13:51;;;;;;;25.70;20.20;;;;;;;13.58;58.14;97085.00;5096555;28;20286;-63
2022/03/18 11:16:20;;;;;;;23.90;19.80;;;;;;;13.25;58.21;97099.63;5096473;28;20275;-64
2022/03/18 11:18:47;;;;;;;25.40;20.20;;;;;;;13.05;59.97;97105.72;5096357;28;20180;-63
2022/03/18 11:21:13;;;;;;;25.47;20.40;;;;;;;12.85;63.18;97104.28;5096469;28;20675;-63
2022/03/18 11:23:41;;;;;;;27.77;21.97;;;;;;;13.03;62.51;97103.34;5096372;28;20207;-63
2022/03/18 11:26:07;;;;;;;26.50;20.63;;;;;;;12.27;64.46;97108.66;5096112;28;20184;-63
2022/03/18 11:28:32;;;;;;;28.50;20.53;;;;;;;11.57;69.03;97113.91;5096109;28;20180;-62
2022/03/18 11:31:06;;;;;;;28.33;21.00;;;;;;;11.51;70.33;97106.38;5096248;28;20240;-51
2022/03/18 11:33:35;;;;;;;26.87;20.57;;;;;;;11.74;72.05;97097.00;5096467;28;20199;-51
2022/03/18 11:36:00;;;;;;;28.90;21.97;;;;;;;11.65;71.88;97109.38;5096309;28;20184;-52